sensor_id;sensor_type;location;lat;lon;timestamp;temperature;humidity
15133;DHT22;7667;51.232;17.110;2023-10-13T00:00:42;12.80;99.90
15133;DHT22;7667;51.232;17.110;2023-10-13T00:03:09;12.90;99.90
15133;DHT22;7667;51.232;17.110;2023-10-13T00:05:42;12.90;99.90
15133;DHT22;7667;51.232;17.110;2023-10-13T00:08:11;12.90;99.90
15133;DHT22;7667;51.232;17.110;2023-10-13T00:10:42;12.90;99.90
15133;DHT22;7667;51.232;17.110;2023-10-13T00:13:10;12.90;99.90
15133;DHT22;7667;51.232;17.110;2023-10-13T00:15:45;12.80;99.90
15133;DHT22;7667;51.232;17.110;2023-10-13T00:18:28;12.80;99.90
15133;DHT22;7667;51.232;17.110;2023-10-13T00:21:09;12.80;99.90
15133;DHT22;7667;51.232;17.110;2023-10-13T00:23:41;12.80;99.90
15133;DHT22;7667;51.232;17.110;2023-10-13T00:26:24;12.80;99.90
15133;DHT22;7667;51.232;17.110;2023-10-13T00:28:57;12.80;99.90
15133;DHT22;7667;51.232;17.110;2023-10-13T00:31:37;12.80;99.90
15133;DHT22;7667;51.232;17.110;2023-10-13T00:34:11;12.70;99.90
15133;DHT22;7667;51.232;17.110;2023-10-13T00:36:46;12.60;99.90
15133;DHT22;7667;51.232;17.110;2023-10-13T00:39:16;12.60;99.90
15133;DHT22;7667;51.232;17.110;2023-10-13T00:41:44;12.60;99.90
15133;DHT22;7667;51.232;17.110;2023-10-13T00:44:24;12.60;99.90
15133;DHT22;7667;51.232;17.110;2023-10-13T00:47:11;12.60;99.90
15133;DHT22;7667;51.232;17.110;2023-10-13T00:49:58;12.60;99.90
15133;DHT22;7667;51.232;17.110;2023-10-13T00:52:26;12.50;99.90
15133;DHT22;7667;51.232;17.110;2023-10-13T00:54:56;12.50;99.90
15133;DHT22;7667;51.232;17.110;2023-10-13T00:57:27;12.60;99.90
15133;DHT22;7667;51.232;17.110;2023-10-13T00:59:56;12.80;99.90
15133;DHT22;7667;51.232;17.110;2023-10-13T01:02:24;12.90;99.90
15133;DHT22;7667;51.232;17.110;2023-10-13T01:05:13;12.80;99.90
15133;DHT22;7667;51.232;17.110;2023-10-13T01:07:47;12.90;99.90
15133;DHT22;7667;51.232;17.110;2023-10-13T01:10:22;12.90;99.90
15133;DHT22;7667;51.232;17.110;2023-10-13T01:12:59;12.80;99.90
15133;DHT22;7667;51.232;17.110;2023-10-13T01:15:29;12.70;99.90
15133;DHT22;7667;51.232;17.110;2023-10-13T01:18:07;12.60;99.90
15133;DHT22;7667;51.232;17.110;2023-10-13T01:20:41;12.60;99.90
15133;DHT22;7667;51.232;17.110;2023-10-13T01:23:19;12.60;99.90
15133;DHT22;7667;51.232;17.110;2023-10-13T01:25:51;12.70;99.90
15133;DHT22;7667;51.232;17.110;2023-10-13T01:28:21;12.80;99.90
15133;DHT22;7667;51.232;17.110;2023-10-13T01:30:49;12.90;99.90
15133;DHT22;7667;51.232;17.110;2023-10-13T01:33:20;12.80;99.90
15133;DHT22;7667;51.232;17.110;2023-10-13T01:35:57;12.80;99.90
15133;DHT22;7667;51.232;17.110;2023-10-13T01:38:26;12.70;99.90
15133;DHT22;7667;51.232;17.110;2023-10-13T01:40:54;12.60;99.90
15133;DHT22;7667;51.232;17.110;2023-10-13T01:43:24;12.60;99.90
15133;DHT22;7667;51.232;17.110;2023-10-13T01:45:52;12.80;99.90
15133;DHT22;7667;51.232;17.110;2023-10-13T01:48:20;12.90;99.90
15133;DHT22;7667;51.232;17.110;2023-10-13T01:50:49;12.90;99.90
15133;DHT22;7667;51.232;17.110;2023-10-13T01:53:23;13.00;99.90
15133;DHT22;7667;51.232;17.110;2023-10-13T01:55:50;13.00;99.90
15133;DHT22;7667;51.232;17.110;2023-10-13T01:58:18;13.00;99.90
15133;DHT22;7667;51.232;17.110;2023-10-13T02:00:50;12.90;99.90
15133;DHT22;7667;51.232;17.110;2023-10-13T02:03:18;12.80;99.90
15133;DHT22;7667;51.232;17.110;2023-10-13T02:05:47;12.80;99.90
15133;DHT22;7667;51.232;17.110;2023-10-13T02:08:20;12.70;99.90
15133;DHT22;7667;51.232;17.110;2023-10-13T02:10:54;12.70;99.90
15133;DHT22;7667;51.232;17.110;2023-10-13T02:13:23;12.80;99.90
15133;DHT22;7667;51.232;17.110;2023-10-13T02:15:57;12.90;99.90
15133;DHT22;7667;51.232;17.110;2023-10-13T02:18:29;12.90;99.90
15133;DHT22;7667;51.232;17.110;2023-10-13T02:21:08;13.10;99.90
15133;DHT22;7667;51.232;17.110;2023-10-13T02:23:42;13.10;99.90
15133;DHT22;7667;51.232;17.110;2023-10-13T02:26:13;13.10;99.90
15133;DHT22;7667;51.232;17.110;2023-10-13T02:29:01;13.10;99.90
15133;DHT22;7667;51.232;17.110;2023-10-13T02:31:35;13.10;99.90
15133;DHT22;7667;51.232;17.110;2023-10-13T02:34:04;13.10;99.90
15133;DHT22;7667;51.232;17.110;2023-10-13T02:36:36;13.00;99.90
15133;DHT22;7667;51.232;17.110;2023-10-13T02:39:05;13.00;99.90
15133;DHT22;7667;51.232;17.110;2023-10-13T02:41:36;12.90;99.90
15133;DHT22;7667;51.232;17.110;2023-10-13T02:44:07;12.90;99.90
15133;DHT22;7667;51.232;17.110;2023-10-13T02:46:37;12.90;99.90
15133;DHT22;7667;51.232;17.110;2023-10-13T02:49:07;12.90;99.90
15133;DHT22;7667;51.232;17.110;2023-10-13T02:51:38;12.90;99.90
15133;DHT22;7667;51.232;17.110;2023-10-13T02:54:09;12.70;99.90
15133;DHT22;7667;51.232;17.110;2023-10-13T02:56:45;12.50;99.90
15133;DHT22;7667;51.232;17.110;2023-10-13T02:59:24;12.50;99.90
15133;DHT22;7667;51.232;17.110;2023-10-13T03:02:07;12.60;99.90
15133;DHT22;7667;51.232;17.110;2023-10-13T03:04:48;12.70;99.90
15133;DHT22;7667;51.232;17.110;2023-10-13T03:07:19;12.70;99.90
15133;DHT22;7667;51.232;17.110;2023-10-13T03:09:50;12.80;99.90
15133;DHT22;7667;51.232;17.110;2023-10-13T03:12:20;12.70;99.90
15133;DHT22;7667;51.232;17.110;2023-10-13T03:14:48;12.70;99.90
15133;DHT22;7667;51.232;17.110;2023-10-13T03:17:16;12.80;99.90
15133;DHT22;7667;51.232;17.110;2023-10-13T03:19:50;12.70;99.90
15133;DHT22;7667;51.232;17.110;2023-10-13T03:22:19;12.70;99.90
15133;DHT22;7667;51.232;17.110;2023-10-13T03:24:58;12.70;99.90
15133;DHT22;7667;51.232;17.110;2023-10-13T03:27:33;12.70;99.90
15133;DHT22;7667;51.232;17.110;2023-10-13T03:30:29;12.60;99.90
15133;DHT22;7667;51.232;17.110;2023-10-13T03:33:04;12.60;99.90
15133;DHT22;7667;51.232;17.110;2023-10-13T03:35:52;12.60;99.90
15133;DHT22;7667;51.232;17.110;2023-10-13T03:38:32;12.50;99.90
15133;DHT22;7667;51.232;17.110;2023-10-13T03:41:03;12.30;99.90
15133;DHT22;7667;51.232;17.110;2023-10-13T03:43:35;12.40;99.90
15133;DHT22;7667;51.232;17.110;2023-10-13T03:46:23;12.40;99.90
15133;DHT22;7667;51.232;17.110;2023-10-13T03:48:50;12.30;99.90
15133;DHT22;7667;51.232;17.110;2023-10-13T03:51:29;12.10;99.90
15133;DHT22;7667;51.232;17.110;2023-10-13T03:54:00;12.10;99.90
15133;DHT22;7667;51.232;17.110;2023-10-13T03:56:35;12.00;99.90
15133;DHT22;7667;51.232;17.110;2023-10-13T03:59:08;11.90;99.90
15133;DHT22;7667;51.232;17.110;2023-10-13T04:01:47;11.80;99.90
15133;DHT22;7667;51.232;17.110;2023-10-13T04:04:19;11.80;99.90
15133;DHT22;7667;51.232;17.110;2023-10-13T04:07:06;11.90;99.90
15133;DHT22;7667;51.232;17.110;2023-10-13T04:09:37;11.90;99.90
15133;DHT22;7667;51.232;17.110;2023-10-13T04:12:14;11.90;99.90
15133;DHT22;7667;51.232;17.110;2023-10-13T04:15:00;11.80;99.90
15133;DHT22;7667;51.232;17.110;2023-10-13T04:17:33;11.80;99.90
15133;DHT22;7667;51.232;17.110;2023-10-13T04:20:08;11.80;99.90
15133;DHT22;7667;51.232;17.110;2023-10-13T04:22:40;11.70;99.90
15133;DHT22;7667;51.232;17.110;2023-10-13T04:25:25;11.50;99.90
15133;DHT22;7667;51.232;17.110;2023-10-13T04:28:10;11.30;99.90
15133;DHT22;7667;51.232;17.110;2023-10-13T04:30:51;11.20;99.90
15133;DHT22;7667;51.232;17.110;2023-10-13T04:33:19;11.10;99.90
15133;DHT22;7667;51.232;17.110;2023-10-13T04:36:05;11.20;99.90
15133;DHT22;7667;51.232;17.110;2023-10-13T04:38:58;11.30;99.90
15133;DHT22;7667;51.232;17.110;2023-10-13T04:44:17;11.10;99.90
15133;DHT22;7667;51.232;17.110;2023-10-13T04:46:51;11.20;99.90
15133;DHT22;7667;51.232;17.110;2023-10-13T04:49:20;11.30;99.90
15133;DHT22;7667;51.232;17.110;2023-10-13T04:52:04;11.40;99.90
15133;DHT22;7667;51.232;17.110;2023-10-13T04:54:45;11.50;99.90
15133;DHT22;7667;51.232;17.110;2023-10-13T04:57:17;11.40;99.90
15133;DHT22;7667;51.232;17.110;2023-10-13T05:00:08;11.40;99.90
15133;DHT22;7667;51.232;17.110;2023-10-13T05:02:43;11.40;99.90
15133;DHT22;7667;51.232;17.110;2023-10-13T05:05:28;11.40;99.90
15133;DHT22;7667;51.232;17.110;2023-10-13T05:08:13;11.40;99.90
15133;DHT22;7667;51.232;17.110;2023-10-13T05:11:06;11.50;99.90
15133;DHT22;7667;51.232;17.110;2023-10-13T05:13:52;11.60;99.90
15133;DHT22;7667;51.232;17.110;2023-10-13T05:16:37;11.50;99.90
15133;DHT22;7667;51.232;17.110;2023-10-13T05:19:24;11.40;99.90
15133;DHT22;7667;51.232;17.110;2023-10-13T05:22:10;11.30;99.90
15133;DHT22;7667;51.232;17.110;2023-10-13T05:24:56;11.30;99.90
15133;DHT22;7667;51.232;17.110;2023-10-13T05:27:43;11.30;99.90
15133;DHT22;7667;51.232;17.110;2023-10-13T05:30:33;11.30;99.90
15133;DHT22;7667;51.232;17.110;2023-10-13T05:33:19;11.30;99.90
15133;DHT22;7667;51.232;17.110;2023-10-13T05:36:10;11.40;99.90
15133;DHT22;7667;51.232;17.110;2023-10-13T05:38:57;11.60;99.90
15133;DHT22;7667;51.232;17.110;2023-10-13T05:41:43;11.60;99.90
15133;DHT22;7667;51.232;17.110;2023-10-13T05:44:28;11.90;99.90
15133;DHT22;7667;51.232;17.110;2023-10-13T05:47:14;12.10;99.90
15133;DHT22;7667;51.232;17.110;2023-10-13T05:50:00;12.20;99.90
15133;DHT22;7667;51.232;17.110;2023-10-13T05:53:00;12.30;99.90
15133;DHT22;7667;51.232;17.110;2023-10-13T05:55:29;12.20;99.90
15133;DHT22;7667;51.232;17.110;2023-10-13T05:58:16;12.30;99.90
15133;DHT22;7667;51.232;17.110;2023-10-13T06:01:02;12.30;99.90
15133;DHT22;7667;51.232;17.110;2023-10-13T06:03:48;12.30;99.90
15133;DHT22;7667;51.232;17.110;2023-10-13T06:06:35;12.30;99.90
15133;DHT22;7667;51.232;17.110;2023-10-13T06:09:23;12.30;99.90
15133;DHT22;7667;51.232;17.110;2023-10-13T06:12:09;12.20;99.90
15133;DHT22;7667;51.232;17.110;2023-10-13T06:14:55;12.10;99.90
15133;DHT22;7667;51.232;17.110;2023-10-13T06:17:41;12.10;99.90
15133;DHT22;7667;51.232;17.110;2023-10-13T06:20:27;12.20;99.90
15133;DHT22;7667;51.232;17.110;2023-10-13T06:23:13;12.20;99.90
15133;DHT22;7667;51.232;17.110;2023-10-13T06:25:59;12.30;99.90
15133;DHT22;7667;51.232;17.110;2023-10-13T06:28:45;12.30;99.90
15133;DHT22;7667;51.232;17.110;2023-10-13T06:31:13;12.30;99.90
15133;DHT22;7667;51.232;17.110;2023-10-13T06:33:53;12.30;99.90
15133;DHT22;7667;51.232;17.110;2023-10-13T06:36:23;12.30;99.90
15133;DHT22;7667;51.232;17.110;2023-10-13T06:38:50;12.30;99.90
15133;DHT22;7667;51.232;17.110;2023-10-13T06:41:44;12.20;99.90
15133;DHT22;7667;51.232;17.110;2023-10-13T06:44:12;12.20;99.90
15133;DHT22;7667;51.232;17.110;2023-10-13T06:46:42;12.30;99.90
15133;DHT22;7667;51.232;17.110;2023-10-13T06:49:11;12.30;99.90
15133;DHT22;7667;51.232;17.110;2023-10-13T06:51:40;12.40;99.90
15133;DHT22;7667;51.232;17.110;2023-10-13T06:54:09;12.50;99.90
15133;DHT22;7667;51.232;17.110;2023-10-13T06:56:47;12.50;99.90
15133;DHT22;7667;51.232;17.110;2023-10-13T06:59:19;12.60;99.90
15133;DHT22;7667;51.232;17.110;2023-10-13T07:01:53;12.60;99.90
15133;DHT22;7667;51.232;17.110;2023-10-13T07:04:21;12.80;99.90
15133;DHT22;7667;51.232;17.110;2023-10-13T07:06:49;13.00;99.90
15133;DHT22;7667;51.232;17.110;2023-10-13T07:09:17;13.20;99.90
15133;DHT22;7667;51.232;17.110;2023-10-13T07:12:08;13.30;99.90
15133;DHT22;7667;51.232;17.110;2023-10-13T07:14:54;13.60;99.90
15133;DHT22;7667;51.232;17.110;2023-10-13T07:17:50;13.80;99.90
15133;DHT22;7667;51.232;17.110;2023-10-13T07:20:23;13.90;99.90
15133;DHT22;7667;51.232;17.110;2023-10-13T07:23:00;14.00;99.90
15133;DHT22;7667;51.232;17.110;2023-10-13T07:25:34;14.10;99.90
15133;DHT22;7667;51.232;17.110;2023-10-13T07:28:05;14.20;99.90
15133;DHT22;7667;51.232;17.110;2023-10-13T07:30:37;14.40;99.90
15133;DHT22;7667;51.232;17.110;2023-10-13T07:33:21;14.30;99.90
15133;DHT22;7667;51.232;17.110;2023-10-13T07:36:03;14.50;99.90
15133;DHT22;7667;51.232;17.110;2023-10-13T07:38:43;14.60;99.90
15133;DHT22;7667;51.232;17.110;2023-10-13T07:41:28;14.70;99.90
15133;DHT22;7667;51.232;17.110;2023-10-13T07:43:59;14.70;99.90
15133;DHT22;7667;51.232;17.110;2023-10-13T07:46:28;14.90;99.90
15133;DHT22;7667;51.232;17.110;2023-10-13T07:48:58;15.10;99.90
15133;DHT22;7667;51.232;17.110;2023-10-13T07:51:38;15.40;99.90
15133;DHT22;7667;51.232;17.110;2023-10-13T07:54:13;15.50;99.90
15133;DHT22;7667;51.232;17.110;2023-10-13T07:56:49;15.80;99.90
15133;DHT22;7667;51.232;17.110;2023-10-13T07:59:17;15.80;99.90
15133;DHT22;7667;51.232;17.110;2023-10-13T08:01:49;16.10;99.90
15133;DHT22;7667;51.232;17.110;2023-10-13T08:04:39;16.40;99.90
15133;DHT22;7667;51.232;17.110;2023-10-13T08:07:07;16.50;99.90
15133;DHT22;7667;51.232;17.110;2023-10-13T08:09:41;16.70;99.90
15133;DHT22;7667;51.232;17.110;2023-10-13T08:12:10;16.80;99.90
15133;DHT22;7667;51.232;17.110;2023-10-13T08:14:48;17.00;99.90
15133;DHT22;7667;51.232;17.110;2023-10-13T08:17:16;17.20;99.90
15133;DHT22;7667;51.232;17.110;2023-10-13T08:19:44;17.40;99.90
15133;DHT22;7667;51.232;17.110;2023-10-13T08:22:17;17.50;99.90
15133;DHT22;7667;51.232;17.110;2023-10-13T08:24:49;17.60;99.90
15133;DHT22;7667;51.232;17.110;2023-10-13T08:27:20;17.60;99.90
15133;DHT22;7667;51.232;17.110;2023-10-13T08:30:16;17.70;99.90
15133;DHT22;7667;51.232;17.110;2023-10-13T08:33:04;17.80;99.90
15133;DHT22;7667;51.232;17.110;2023-10-13T08:35:44;18.00;99.90
15133;DHT22;7667;51.232;17.110;2023-10-13T08:38:32;18.00;99.90
15133;DHT22;7667;51.232;17.110;2023-10-13T08:41:18;18.10;99.90
15133;DHT22;7667;51.232;17.110;2023-10-13T08:43:46;18.20;99.90
15133;DHT22;7667;51.232;17.110;2023-10-13T08:46:20;18.20;99.90
15133;DHT22;7667;51.232;17.110;2023-10-13T08:49:18;18.20;99.90
15133;DHT22;7667;51.232;17.110;2023-10-13T08:51:50;18.30;99.90
15133;DHT22;7667;51.232;17.110;2023-10-13T08:54:35;18.40;99.90
15133;DHT22;7667;51.232;17.110;2023-10-13T08:57:30;18.70;99.90
15133;DHT22;7667;51.232;17.110;2023-10-13T09:00:02;18.60;99.90
15133;DHT22;7667;51.232;17.110;2023-10-13T09:03:09;18.50;99.90
15133;DHT22;7667;51.232;17.110;2023-10-13T09:05:56;18.50;99.90
15133;DHT22;7667;51.232;17.110;2023-10-13T09:08:31;18.70;99.90
15133;DHT22;7667;51.232;17.110;2023-10-13T09:11:17;18.60;99.90
15133;DHT22;7667;51.232;17.110;2023-10-13T09:13:53;18.70;99.90
15133;DHT22;7667;51.232;17.110;2023-10-13T09:16:21;18.90;99.90
15133;DHT22;7667;51.232;17.110;2023-10-13T09:19:02;19.10;99.90
15133;DHT22;7667;51.232;17.110;2023-10-13T09:21:41;18.90;99.90
15133;DHT22;7667;51.232;17.110;2023-10-13T09:24:09;19.20;99.90
15133;DHT22;7667;51.232;17.110;2023-10-13T09:26:44;19.10;99.90
15133;DHT22;7667;51.232;17.110;2023-10-13T09:29:19;19.20;99.90
15133;DHT22;7667;51.232;17.110;2023-10-13T09:32:00;19.20;99.90
15133;DHT22;7667;51.232;17.110;2023-10-13T09:34:31;19.30;99.90
15133;DHT22;7667;51.232;17.110;2023-10-13T09:37:02;19.40;99.90
15133;DHT22;7667;51.232;17.110;2023-10-13T09:39:34;19.40;99.90
15133;DHT22;7667;51.232;17.110;2023-10-13T09:42:12;19.50;99.90
15133;DHT22;7667;51.232;17.110;2023-10-13T09:44:45;19.50;99.90
15133;DHT22;7667;51.232;17.110;2023-10-13T09:47:23;19.70;99.90
15133;DHT22;7667;51.232;17.110;2023-10-13T09:50:00;19.50;99.90
15133;DHT22;7667;51.232;17.110;2023-10-13T09:52:33;19.50;99.90
15133;DHT22;7667;51.232;17.110;2023-10-13T09:57:43;19.80;99.90
15133;DHT22;7667;51.232;17.110;2023-10-13T10:00:18;19.70;99.90
15133;DHT22;7667;51.232;17.110;2023-10-13T10:03:06;19.40;99.90
15133;DHT22;7667;51.232;17.110;2023-10-13T10:06:01;19.70;99.90
15133;DHT22;7667;51.232;17.110;2023-10-13T10:08:43;19.70;99.90
15133;DHT22;7667;51.232;17.110;2023-10-13T10:11:34;19.60;99.90
15133;DHT22;7667;51.232;17.110;2023-10-13T10:14:28;19.90;99.90
15133;DHT22;7667;51.232;17.110;2023-10-13T10:17:09;20.00;99.90
15133;DHT22;7667;51.232;17.110;2023-10-13T10:19:53;20.00;99.90
15133;DHT22;7667;51.232;17.110;2023-10-13T10:22:30;20.10;99.90
15133;DHT22;7667;51.232;17.110;2023-10-13T10:25:03;20.30;99.90
15133;DHT22;7667;51.232;17.110;2023-10-13T10:27:34;20.00;99.90
15133;DHT22;7667;51.232;17.110;2023-10-13T10:30:03;20.00;99.90
15133;DHT22;7667;51.232;17.110;2023-10-13T10:32:38;20.00;99.90
15133;DHT22;7667;51.232;17.110;2023-10-13T10:35:10;20.10;99.90
15133;DHT22;7667;51.232;17.110;2023-10-13T10:37:47;20.60;99.90
15133;DHT22;7667;51.232;17.110;2023-10-13T10:40:16;20.40;99.90
15133;DHT22;7667;51.232;17.110;2023-10-13T10:43:03;20.50;99.90
15133;DHT22;7667;51.232;17.110;2023-10-13T10:45:51;20.60;99.90
15133;DHT22;7667;51.232;17.110;2023-10-13T10:48:19;20.40;99.90
15133;DHT22;7667;51.232;17.110;2023-10-13T10:50:51;20.60;99.90
15133;DHT22;7667;51.232;17.110;2023-10-13T10:53:23;20.90;99.90
15133;DHT22;7667;51.232;17.110;2023-10-13T10:56:07;21.00;99.90
15133;DHT22;7667;51.232;17.110;2023-10-13T10:58:47;21.10;99.90
15133;DHT22;7667;51.232;17.110;2023-10-13T11:01:26;21.20;99.90
15133;DHT22;7667;51.232;17.110;2023-10-13T11:04:02;21.50;99.90
15133;DHT22;7667;51.232;17.110;2023-10-13T11:06:53;21.60;99.90
15133;DHT22;7667;51.232;17.110;2023-10-13T11:09:29;21.90;99.90
15133;DHT22;7667;51.232;17.110;2023-10-13T11:12:14;22.20;99.90
15133;DHT22;7667;51.232;17.110;2023-10-13T11:14:43;22.30;99.90
15133;DHT22;7667;51.232;17.110;2023-10-13T11:17:23;21.60;99.90
15133;DHT22;7667;51.232;17.110;2023-10-13T11:20:11;21.20;99.90
15133;DHT22;7667;51.232;17.110;2023-10-13T11:22:47;21.80;99.90
15133;DHT22;7667;51.232;17.110;2023-10-13T11:25:26;21.70;99.90
15133;DHT22;7667;51.232;17.110;2023-10-13T11:28:16;21.40;99.90
15133;DHT22;7667;51.232;17.110;2023-10-13T11:30:48;21.30;99.90
15133;DHT22;7667;51.232;17.110;2023-10-13T11:33:19;21.10;99.90
15133;DHT22;7667;51.232;17.110;2023-10-13T11:35:57;21.10;99.90
15133;DHT22;7667;51.232;17.110;2023-10-13T11:38:33;21.80;99.90
15133;DHT22;7667;51.232;17.110;2023-10-13T11:41:30;21.90;99.90
15133;DHT22;7667;51.232;17.110;2023-10-13T11:44:02;21.70;99.90
15133;DHT22;7667;51.232;17.110;2023-10-13T11:46:40;21.00;99.90
15133;DHT22;7667;51.232;17.110;2023-10-13T11:49:15;21.00;99.90
15133;DHT22;7667;51.232;17.110;2023-10-13T11:51:43;21.00;99.90
15133;DHT22;7667;51.232;17.110;2023-10-13T11:54:18;20.80;99.90
15133;DHT22;7667;51.232;17.110;2023-10-13T11:56:50;20.60;99.90
15133;DHT22;7667;51.232;17.110;2023-10-13T11:59:17;20.60;99.90
15133;DHT22;7667;51.232;17.110;2023-10-13T12:01:49;20.60;99.90
15133;DHT22;7667;51.232;17.110;2023-10-13T12:04:38;20.80;99.90
15133;DHT22;7667;51.232;17.110;2023-10-13T12:07:26;20.80;99.90
15133;DHT22;7667;51.232;17.110;2023-10-13T12:10:13;20.50;99.90
15133;DHT22;7667;51.232;17.110;2023-10-13T12:13:01;20.70;99.90
15133;DHT22;7667;51.232;17.110;2023-10-13T12:15:33;21.00;99.90
15133;DHT22;7667;51.232;17.110;2023-10-13T12:18:16;20.80;99.90
15133;DHT22;7667;51.232;17.110;2023-10-13T12:20:43;20.70;99.90
15133;DHT22;7667;51.232;17.110;2023-10-13T12:23:13;20.70;99.90
15133;DHT22;7667;51.232;17.110;2023-10-13T12:25:44;20.70;99.90
15133;DHT22;7667;51.232;17.110;2023-10-13T12:28:23;21.00;99.90
15133;DHT22;7667;51.232;17.110;2023-10-13T12:30:56;20.80;99.90
15133;DHT22;7667;51.232;17.110;2023-10-13T12:33:29;20.80;99.90
15133;DHT22;7667;51.232;17.110;2023-10-13T12:36:04;20.50;99.90
15133;DHT22;7667;51.232;17.110;2023-10-13T12:38:41;20.40;99.90
15133;DHT22;7667;51.232;17.110;2023-10-13T12:41:19;20.40;99.90
15133;DHT22;7667;51.232;17.110;2023-10-13T12:44:07;20.40;99.90
15133;DHT22;7667;51.232;17.110;2023-10-13T12:46:54;20.40;99.90
15133;DHT22;7667;51.232;17.110;2023-10-13T12:49:40;20.40;99.90
15133;DHT22;7667;51.232;17.110;2023-10-13T12:52:15;20.30;99.90
15133;DHT22;7667;51.232;17.110;2023-10-13T12:54:43;20.20;99.90
15133;DHT22;7667;51.232;17.110;2023-10-13T12:57:27;20.20;99.90
15133;DHT22;7667;51.232;17.110;2023-10-13T12:59:55;20.20;99.90
15133;DHT22;7667;51.232;17.110;2023-10-13T13:02:24;20.00;99.90
15133;DHT22;7667;51.232;17.110;2023-10-13T13:04:54;20.00;99.90
15133;DHT22;7667;51.232;17.110;2023-10-13T13:07:40;19.80;99.90
15133;DHT22;7667;51.232;17.110;2023-10-13T13:10:15;19.80;99.90
15133;DHT22;7667;51.232;17.110;2023-10-13T13:12:42;19.80;99.90
15133;DHT22;7667;51.232;17.110;2023-10-13T13:15:11;19.80;99.90
15133;DHT22;7667;51.232;17.110;2023-10-13T13:17:39;19.90;99.90
15133;DHT22;7667;51.232;17.110;2023-10-13T13:20:08;19.90;99.90
15133;DHT22;7667;51.232;17.110;2023-10-13T13:22:54;19.80;99.90
15133;DHT22;7667;51.232;17.110;2023-10-13T13:25:22;19.80;99.90
15133;DHT22;7667;51.232;17.110;2023-10-13T13:27:58;19.80;99.90
15133;DHT22;7667;51.232;17.110;2023-10-13T13:30:32;19.80;99.90
15133;DHT22;7667;51.232;17.110;2023-10-13T13:33:05;19.80;99.90
15133;DHT22;7667;51.232;17.110;2023-10-13T13:35:41;19.80;99.90
15133;DHT22;7667;51.232;17.110;2023-10-13T13:38:16;19.80;99.90
15133;DHT22;7667;51.232;17.110;2023-10-13T13:40:49;19.70;99.90
15133;DHT22;7667;51.232;17.110;2023-10-13T13:43:22;19.70;99.90
15133;DHT22;7667;51.232;17.110;2023-10-13T13:46:05;19.70;99.90
15133;DHT22;7667;51.232;17.110;2023-10-13T13:48:37;19.60;99.90
15133;DHT22;7667;51.232;17.110;2023-10-13T13:51:06;19.60;99.90
15133;DHT22;7667;51.232;17.110;2023-10-13T13:53:42;19.60;99.90
15133;DHT22;7667;51.232;17.110;2023-10-13T13:56:15;19.60;99.90
15133;DHT22;7667;51.232;17.110;2023-10-13T14:01:12;19.80;99.90
15133;DHT22;7667;51.232;17.110;2023-10-13T14:03:47;19.80;99.90
15133;DHT22;7667;51.232;17.110;2023-10-13T14:06:19;19.80;99.90
15133;DHT22;7667;51.232;17.110;2023-10-13T14:08:52;19.90;99.90
15133;DHT22;7667;51.232;17.110;2023-10-13T14:11:26;19.80;99.90
15133;DHT22;7667;51.232;17.110;2023-10-13T14:14:14;19.80;99.90
15133;DHT22;7667;51.232;17.110;2023-10-13T14:16:52;19.80;99.90
15133;DHT22;7667;51.232;17.110;2023-10-13T14:19:20;19.80;99.90
15133;DHT22;7667;51.232;17.110;2023-10-13T14:21:58;19.80;99.90
15133;DHT22;7667;51.232;17.110;2023-10-13T14:24:26;19.80;99.90
15133;DHT22;7667;51.232;17.110;2023-10-13T14:27:01;19.80;99.90
15133;DHT22;7667;51.232;17.110;2023-10-13T14:29:56;19.80;99.90
15133;DHT22;7667;51.232;17.110;2023-10-13T14:32:24;19.70;99.90
15133;DHT22;7667;51.232;17.110;2023-10-13T14:34:52;19.70;99.90
15133;DHT22;7667;51.232;17.110;2023-10-13T14:37:24;19.70;99.90
15133;DHT22;7667;51.232;17.110;2023-10-13T14:39:58;19.60;99.90
15133;DHT22;7667;51.232;17.110;2023-10-13T14:42:28;19.60;99.90
15133;DHT22;7667;51.232;17.110;2023-10-13T14:45:03;19.70;99.90
15133;DHT22;7667;51.232;17.110;2023-10-13T14:47:40;19.60;99.90
15133;DHT22;7667;51.232;17.110;2023-10-13T14:50:10;19.60;99.90
15133;DHT22;7667;51.232;17.110;2023-10-13T14:52:50;19.60;99.90
15133;DHT22;7667;51.232;17.110;2023-10-13T14:55:18;19.60;99.90
15133;DHT22;7667;51.232;17.110;2023-10-13T14:57:47;19.60;99.90
15133;DHT22;7667;51.232;17.110;2023-10-13T15:00:18;19.60;99.90
15133;DHT22;7667;51.232;17.110;2023-10-13T15:02:53;19.50;99.90
15133;DHT22;7667;51.232;17.110;2023-10-13T15:05:22;19.50;99.90
15133;DHT22;7667;51.232;17.110;2023-10-13T15:07:50;19.50;99.90
15133;DHT22;7667;51.232;17.110;2023-10-13T15:10:18;19.40;99.90
15133;DHT22;7667;51.232;17.110;2023-10-13T15:12:46;19.40;99.90
15133;DHT22;7667;51.232;17.110;2023-10-13T15:15:15;19.30;99.90
15133;DHT22;7667;51.232;17.110;2023-10-13T15:17:43;19.30;99.90
15133;DHT22;7667;51.232;17.110;2023-10-13T15:20:12;19.30;99.90
15133;DHT22;7667;51.232;17.110;2023-10-13T15:22:45;19.30;99.90
15133;DHT22;7667;51.232;17.110;2023-10-13T15:25:16;19.30;99.90
15133;DHT22;7667;51.232;17.110;2023-10-13T15:27:48;19.30;99.90
15133;DHT22;7667;51.232;17.110;2023-10-13T15:30:25;19.30;99.90
15133;DHT22;7667;51.232;17.110;2023-10-13T15:32:58;19.30;99.90
15133;DHT22;7667;51.232;17.110;2023-10-13T15:35:29;19.30;99.90
15133;DHT22;7667;51.232;17.110;2023-10-13T15:37:56;19.30;99.90
15133;DHT22;7667;51.232;17.110;2023-10-13T15:40:24;19.20;99.90
15133;DHT22;7667;51.232;17.110;2023-10-13T15:42:55;19.10;99.90
15133;DHT22;7667;51.232;17.110;2023-10-13T15:45:26;19.10;99.90
15133;DHT22;7667;51.232;17.110;2023-10-13T15:48:06;19.10;99.90
15133;DHT22;7667;51.232;17.110;2023-10-13T15:50:40;19.00;99.90
15133;DHT22;7667;51.232;17.110;2023-10-13T15:53:09;19.00;99.90
15133;DHT22;7667;51.232;17.110;2023-10-13T15:55:40;18.90;99.90
15133;DHT22;7667;51.232;17.110;2023-10-13T15:58:08;18.90;99.90
15133;DHT22;7667;51.232;17.110;2023-10-13T16:00:36;18.80;99.90
15133;DHT22;7667;51.232;17.110;2023-10-13T16:03:05;18.70;99.90
15133;DHT22;7667;51.232;17.110;2023-10-13T16:05:39;18.60;99.90
15133;DHT22;7667;51.232;17.110;2023-10-13T16:08:11;18.50;99.90
15133;DHT22;7667;51.232;17.110;2023-10-13T16:10:40;18.40;99.90
15133;DHT22;7667;51.232;17.110;2023-10-13T16:13:08;18.30;99.90
15133;DHT22;7667;51.232;17.110;2023-10-13T16:15:47;18.20;99.90
15133;DHT22;7667;51.232;17.110;2023-10-13T16:18:15;18.10;99.90
15133;DHT22;7667;51.232;17.110;2023-10-13T16:20:49;17.90;99.90
15133;DHT22;7667;51.232;17.110;2023-10-13T16:23:18;17.80;99.90
15133;DHT22;7667;51.232;17.110;2023-10-13T16:25:46;17.70;99.90
15133;DHT22;7667;51.232;17.110;2023-10-13T16:28:14;17.60;99.90
15133;DHT22;7667;51.232;17.110;2023-10-13T16:30:42;17.50;99.90
15133;DHT22;7667;51.232;17.110;2023-10-13T16:33:10;17.50;99.90